createdAt,value
2023-05-20T00:01:24.929Z,65.12
2023-05-20T00:04:12.280Z,65.24
2023-05-20T00:07:00.711Z,65.31
2023-05-20T00:09:47.555Z,65.33
2023-05-20T00:12:35.610Z,65.31
2023-05-20T00:15:23.470Z,65.14
2023-05-20T00:18:11.951Z,65.03
2023-05-20T00:20:59.511Z,65.30
2023-05-20T00:23:47.610Z,65.15
2023-05-20T00:26:34.798Z,65.27
2023-05-20T00:29:23.139Z,64.98
2023-05-20T00:32:10.542Z,65.02
2023-05-20T00:34:58.756Z,65.18
2023-05-20T00:37:46.173Z,65.64
2023-05-20T00:40:32.963Z,66.08
2023-05-20T00:43:21.598Z,66.11
2023-05-20T00:46:09.154Z,66.59
2023-05-20T00:48:58.359Z,66.88
2023-05-20T00:51:45.536Z,67.16
2023-05-20T00:54:33.819Z,67.33
2023-05-20T00:57:21.296Z,67.34
2023-05-20T01:00:11.594Z,67.03
2023-05-20T01:03:00.590Z,67.28
2023-05-20T01:05:49.327Z,69.88
2023-05-20T01:08:41.640Z,67.81
2023-05-20T01:11:43.832Z,69.44
2023-05-20T01:14:37.365Z,67.77
2023-05-20T01:17:27.891Z,68.10
2023-05-20T01:20:16.429Z,68.38
2023-05-20T01:23:04.673Z,68.83
2023-05-20T01:25:52.427Z,69.18
2023-05-20T01:28:39.755Z,68.77
2023-05-20T01:31:34.846Z,68.53
2023-05-20T01:34:22.290Z,68.77
2023-05-20T01:37:11.442Z,69.10
2023-05-20T01:39:58.986Z,69.04
2023-05-20T01:42:53.083Z,69.28
2023-05-20T01:45:42.816Z,69.17
2023-05-20T01:48:31.741Z,69.00
2023-05-20T01:51:18.791Z,68.97
2023-05-20T01:54:07.163Z,69.02
2023-05-20T01:56:53.982Z,69.29
2023-05-20T01:59:43.535Z,69.40
2023-05-20T02:02:32.078Z,69.58
2023-05-20T02:05:19.660Z,69.78
2023-05-20T02:08:07.283Z,70.03
2023-05-20T02:10:56.029Z,69.92
2023-05-20T02:13:44.501Z,70.01
2023-05-20T02:16:32.266Z,69.60
2023-05-20T02:19:24.038Z,69.23
2023-05-20T02:22:11.842Z,68.83
2023-05-20T02:24:59.093Z,68.56
2023-05-20T02:27:46.428Z,68.21
2023-05-20T02:30:37.048Z,67.86
2023-05-20T02:33:25.010Z,67.69
2023-05-20T02:36:11.808Z,67.79
2023-05-20T02:38:59.018Z,68.32
2023-05-20T02:41:46.513Z,68.75
2023-05-20T02:44:34.502Z,69.01
2023-05-20T02:47:21.914Z,69.06
2023-05-20T02:50:09.644Z,68.96
2023-05-20T02:52:56.461Z,69.53
2023-05-20T02:55:43.395Z,69.61
2023-05-20T02:58:30.468Z,69.36
2023-05-20T03:01:19.281Z,69.42
2023-05-20T03:04:05.991Z,69.15
2023-05-20T03:06:53.464Z,69.40
2023-05-20T03:09:42.880Z,69.36
2023-05-20T03:12:32.090Z,69.23
2023-05-20T03:15:18.865Z,69.60
2023-05-20T03:18:07.792Z,70.03
2023-05-20T03:20:54.726Z,70.32
2023-05-20T03:23:41.483Z,70.28
2023-05-20T03:26:28.347Z,70.90
2023-05-20T03:29:14.753Z,70.85
2023-05-20T03:32:02.853Z,70.87
2023-05-20T03:34:49.987Z,70.85
2023-05-20T03:37:37.409Z,70.69
2023-05-20T03:40:23.871Z,70.65
2023-05-20T03:43:10.371Z,70.66
2023-05-20T03:45:56.795Z,70.73
2023-05-20T03:48:43.738Z,70.29
2023-05-20T03:51:30.448Z,70.18
2023-05-20T03:54:24.995Z,70.18
2023-05-20T03:57:12.980Z,70.26
2023-05-20T04:00:00.145Z,70.09
2023-05-20T04:02:47.144Z,69.92
2023-05-20T04:05:40.332Z,70.49
2023-05-20T04:08:36.958Z,70.47
2023-05-20T04:11:24.276Z,70.41
2023-05-20T04:14:16.333Z,70.11
2023-05-20T04:17:05.898Z,70.48
2023-05-20T04:19:53.452Z,70.41
2023-05-20T04:22:40.680Z,70.25
2023-05-20T04:25:27.658Z,70.18
2023-05-20T04:28:16.965Z,70.31
2023-05-20T04:31:04.895Z,70.46
2023-05-20T04:33:55.321Z,70.31
2023-05-20T04:36:42.410Z,70.36
2023-05-20T04:39:29.652Z,70.26
2023-05-20T04:42:20.564Z,70.38
2023-05-20T04:45:09.452Z,69.62
2023-05-20T04:47:56.704Z,69.96
2023-05-20T04:50:44.255Z,70.26
2023-05-20T04:53:32.887Z,70.63
2023-05-20T04:56:22.326Z,70.69
2023-05-20T04:59:11.405Z,70.65
2023-05-20T05:02:00.970Z,70.65
2023-05-20T05:04:47.692Z,70.71
2023-05-20T05:07:35.263Z,70.50
2023-05-20T05:10:23.492Z,70.28
2023-05-20T05:13:09.603Z,70.36
2023-05-20T05:16:01.541Z,70.69
2023-05-20T05:18:49.304Z,70.27
2023-05-20T05:21:37.103Z,70.25
2023-05-20T05:24:23.455Z,69.89
2023-05-20T05:27:13.072Z,69.79
2023-05-20T05:29:59.675Z,70.06
2023-05-20T05:32:45.883Z,70.01
2023-05-20T05:35:33.557Z,70.05
2023-05-20T05:38:20.441Z,69.64
2023-05-20T05:41:08.135Z,69.73
2023-05-20T05:43:54.514Z,69.97
2023-05-20T05:46:41.428Z,69.83
2023-05-20T05:49:27.871Z,69.72
2023-05-20T05:52:14.043Z,69.63
2023-05-20T05:55:01.983Z,69.40
2023-05-20T05:57:49.721Z,69.07
2023-05-20T06:00:35.895Z,69.22
2023-05-20T06:03:23.028Z,68.86
2023-05-20T06:06:09.356Z,68.75
2023-05-20T06:08:56.069Z,68.71
2023-05-20T06:11:44.845Z,68.25
2023-05-20T06:14:32.745Z,68.60
2023-05-20T06:17:19.683Z,68.54
2023-05-20T06:20:07.314Z,68.44
2023-05-20T06:22:54.010Z,68.64
2023-05-20T06:25:43.132Z,68.15
2023-05-20T06:28:29.976Z,68.32
2023-05-20T06:31:17.549Z,68.34
2023-05-20T06:34:04.112Z,68.57
2023-05-20T06:36:51.211Z,68.80
2023-05-20T06:39:37.997Z,68.48
2023-05-20T06:42:24.760Z,68.50
2023-05-20T06:45:22.576Z,68.54
2023-05-20T06:48:12.793Z,68.36
2023-05-20T06:50:59.175Z,68.01
2023-05-20T06:53:46.350Z,67.30
2023-05-20T06:56:33.670Z,67.14
2023-05-20T06:59:20.594Z,66.51
2023-05-20T07:02:06.857Z,66.12
2023-05-20T07:04:54.127Z,66.08
2023-05-20T07:07:40.351Z,65.85
2023-05-20T07:10:26.388Z,64.77
2023-05-20T07:13:13.072Z,64.33
2023-05-20T07:15:59.549Z,63.31
2023-05-20T07:18:47.958Z,63.15
2023-05-20T07:21:34.172Z,62.40
2023-05-20T07:24:43.016Z,61.08
2023-05-20T07:27:29.594Z,60.95
2023-05-20T07:30:17.536Z,60.51
2023-05-20T07:33:11.901Z,59.95
2023-05-20T07:35:58.925Z,59.83
2023-05-20T07:38:57.115Z,58.02
2023-05-20T07:41:51.363Z,57.46
2023-05-20T07:44:37.392Z,57.12
2023-05-20T07:47:24.401Z,55.71
2023-05-20T07:50:12.147Z,55.65
2023-05-20T07:52:58.379Z,55.95
2023-05-20T07:55:47.395Z,55.81
2023-05-20T07:58:33.898Z,55.11
2023-05-20T08:01:25.675Z,55.51
2023-05-20T08:04:14.044Z,55.98
2023-05-20T08:07:06.360Z,55.58
2023-05-20T08:10:11.504Z,54.63
2023-05-20T08:12:57.972Z,53.74
2023-05-20T08:15:49.064Z,52.81
2023-05-20T08:21:40.952Z,52.27
2023-05-20T08:24:29.822Z,52.88
2023-05-20T08:27:23.226Z,52.29
2023-05-20T08:30:13.939Z,51.98
2023-05-20T08:33:02.113Z,52.53
2023-05-20T08:35:50.062Z,51.47
2023-05-20T08:38:37.463Z,51.78
2023-05-20T08:41:25.414Z,52.16
2023-05-20T08:44:12.424Z,52.15
2023-05-20T08:47:03.574Z,52.52
2023-05-20T08:49:50.688Z,52.99
2023-05-20T08:52:42.193Z,53.19
2023-05-20T08:55:53.080Z,51.76
2023-05-20T08:58:39.584Z,53.98
2023-05-20T09:01:27.094Z,53.14
2023-05-20T09:04:14.697Z,52.63
2023-05-20T09:07:01.160Z,52.11
2023-05-20T09:09:47.197Z,51.52
2023-05-20T09:12:33.881Z,51.52
2023-05-20T09:15:21.011Z,51.92
2023-05-20T09:18:09.320Z,53.03
2023-05-20T09:20:55.706Z,52.74
2023-05-20T09:23:48.735Z,53.84
2023-05-20T09:26:55.097Z,54.19
2023-05-20T09:29:43.513Z,54.25
2023-05-20T09:32:35.982Z,54.74
2023-05-20T09:35:23.769Z,55.03
2023-05-20T09:38:11.727Z,55.64
2023-05-20T09:41:02.222Z,55.33
2023-05-20T09:43:53.687Z,55.59
2023-05-20T09:49:47.506Z,55.04
2023-05-20T09:52:37.567Z,55.08
2023-05-20T09:55:25.056Z,55.46
2023-05-20T09:58:16.422Z,56.00
2023-05-20T10:01:03.043Z,54.91
2023-05-20T10:03:50.375Z,54.47
2023-05-20T10:06:55.554Z,51.37
2023-05-20T10:09:51.653Z,50.89
2023-05-20T10:12:59.475Z,50.51
2023-05-20T10:16:09.663Z,51.26
2023-05-20T10:19:21.751Z,48.72
2023-05-20T10:22:11.747Z,50.29
2023-05-20T10:25:08.828Z,48.27
2023-05-20T10:28:16.382Z,48.75
2023-05-20T10:31:21.797Z,48.57
2023-05-20T10:34:20.949Z,49.41
2023-05-20T10:37:07.533Z,50.05
2023-05-20T10:40:06.080Z,50.20
2023-05-20T10:42:52.289Z,50.19
2023-05-20T10:45:54.606Z,49.37
2023-05-20T10:48:43.381Z,49.99
2023-05-20T10:51:32.520Z,49.69
2023-05-20T10:54:18.362Z,48.83
2023-05-20T10:57:11.298Z,47.65
2023-05-20T11:00:17.251Z,46.04
2023-05-20T11:03:07.618Z,45.01
2023-05-20T11:05:53.818Z,43.48
2023-05-20T11:08:39.982Z,42.32
2023-05-20T11:11:26.866Z,39.56
2023-05-20T11:14:15.315Z,37.62
2023-05-20T11:17:01.641Z,38.66
2023-05-20T11:19:49.257Z,38.34
2023-05-20T11:22:37.891Z,37.88
2023-05-20T11:25:25.008Z,38.81
2023-05-20T11:28:14.728Z,39.58
2023-05-20T11:31:01.983Z,39.04
2023-05-20T11:33:47.889Z,37.58
2023-05-20T11:36:35.037Z,38.17
2023-05-20T11:39:21.344Z,40.35
2023-05-20T11:42:08.050Z,39.65
2023-05-20T11:44:54.089Z,39.12
2023-05-20T11:47:40.367Z,40.20
2023-05-20T11:50:26.467Z,39.28
2023-05-20T11:53:21.727Z,38.74
2023-05-20T11:56:07.983Z,38.94
2023-05-20T11:59:00.692Z,38.64
2023-05-20T12:01:46.784Z,38.70
2023-05-20T12:04:33.016Z,38.58
2023-05-20T12:07:19.476Z,38.45
2023-05-20T12:10:07.268Z,38.91
2023-05-20T12:12:57.072Z,39.19
2023-05-20T12:15:44.899Z,39.27
2023-05-20T12:18:31.780Z,39.80
2023-05-20T12:21:19.223Z,39.91
2023-05-20T12:24:07.232Z,40.33
2023-05-20T12:26:53.261Z,39.45
2023-05-20T12:29:39.989Z,39.35
2023-05-20T12:32:25.992Z,39.52
2023-05-20T12:35:13.829Z,39.50
2023-05-20T12:38:01.268Z,40.50
2023-05-20T12:40:48.028Z,40.37
2023-05-20T12:43:35.555Z,41.96
2023-05-20T12:46:23.281Z,40.98
2023-05-20T12:49:10.770Z,41.29
2023-05-20T12:51:57.207Z,41.12
2023-05-20T12:54:44.781Z,41.38
2023-05-20T12:57:31.370Z,41.49
2023-05-20T13:00:18.178Z,41.51
2023-05-20T13:03:04.323Z,41.79
2023-05-20T13:05:51.289Z,42.41
2023-05-20T13:08:37.424Z,41.84
2023-05-20T13:11:24.676Z,41.99
2023-05-20T13:14:10.868Z,42.38
2023-05-20T13:16:58.133Z,42.79
2023-05-20T13:19:46.393Z,41.76
2023-05-20T13:22:34.657Z,41.30
2023-05-20T13:25:21.206Z,42.10
2023-05-20T13:28:07.804Z,42.12
2023-05-20T13:30:53.973Z,42.76
2023-05-20T13:33:41.158Z,42.80
2023-05-20T13:36:27.691Z,41.85
2023-05-20T13:39:15.972Z,43.43
2023-05-20T13:42:02.929Z,43.02
2023-05-20T13:44:51.848Z,41.91
2023-05-20T13:47:38.572Z,42.79
2023-05-20T13:50:27.111Z,42.99
2023-05-20T13:53:14.424Z,42.88
2023-05-20T13:56:00.710Z,42.99
2023-05-20T13:58:47.404Z,43.57
2023-05-20T14:01:33.725Z,43.47
2023-05-20T14:04:20.172Z,43.59
2023-05-20T14:07:09.808Z,42.76
2023-05-20T14:09:57.538Z,43.07
2023-05-20T14:12:47.983Z,43.29
2023-05-20T14:15:36.100Z,44.33
2023-05-20T14:18:23.655Z,44.23
2023-05-20T14:21:11.664Z,44.99
2023-05-20T14:23:59.371Z,44.06
2023-05-20T14:26:45.493Z,44.59
2023-05-20T14:29:32.715Z,44.34
2023-05-20T14:32:18.884Z,44.39
2023-05-20T14:35:06.282Z,44.84
2023-05-20T14:37:52.858Z,44.66
2023-05-20T14:40:39.049Z,45.01
2023-05-20T14:43:25.925Z,44.55
2023-05-20T14:46:12.948Z,44.89
2023-05-20T14:48:59.214Z,45.00
2023-05-20T14:51:46.325Z,45.52
2023-05-20T14:54:35.678Z,46.12
2023-05-20T14:57:22.214Z,46.16
2023-05-20T15:00:09.621Z,46.00
2023-05-20T15:02:56.339Z,48.06
2023-05-20T15:06:03.696Z,49.43
2023-05-20T15:08:51.993Z,49.59
2023-05-20T15:11:40.062Z,49.29
2023-05-20T15:14:30.142Z,50.87
2023-05-20T15:17:16.424Z,47.90
2023-05-20T15:20:03.391Z,47.95
2023-05-20T15:22:52.345Z,47.36
2023-05-20T15:25:42.568Z,49.05
2023-05-20T15:28:29.179Z,48.89
2023-05-20T15:31:15.714Z,48.78
2023-05-20T15:34:01.942Z,49.47
2023-05-20T15:36:51.546Z,49.39
2023-05-20T15:39:38.923Z,49.67
2023-05-20T15:42:25.906Z,50.33
2023-05-20T15:45:17.829Z,51.00
2023-05-20T15:48:04.481Z,51.43
2023-05-20T15:50:50.805Z,52.17
2023-05-20T15:53:40.035Z,51.90
2023-05-20T15:56:27.471Z,52.45
2023-05-20T15:59:14.397Z,52.06
2023-05-20T16:02:00.230Z,51.75
2023-05-20T16:04:47.137Z,51.97
2023-05-20T16:07:33.242Z,52.63
2023-05-20T16:10:20.167Z,52.15
2023-05-20T16:13:06.777Z,52.29
2023-05-20T16:15:57.950Z,53.03
2023-05-20T16:18:45.424Z,52.67
2023-05-20T16:21:32.447Z,53.52
2023-05-20T16:24:18.490Z,53.64
2023-05-20T16:27:07.545Z,54.56
2023-05-20T16:29:54.004Z,54.70
2023-05-20T16:32:41.293Z,55.28
2023-05-20T16:35:27.291Z,55.71
2023-05-20T16:38:14.260Z,55.90
2023-05-20T16:41:01.509Z,56.18
2023-05-20T16:43:48.101Z,56.61
2023-05-20T16:46:34.729Z,56.82
2023-05-20T16:49:21.512Z,56.57
2023-05-20T16:52:07.978Z,56.90
2023-05-20T16:54:54.912Z,56.84
2023-05-20T16:57:40.942Z,56.81
2023-05-20T17:00:27.625Z,56.67
2023-05-20T17:03:14.455Z,57.00
2023-05-20T17:06:03.142Z,57.10
2023-05-20T17:08:48.940Z,57.17
2023-05-20T17:11:36.237Z,57.20
2023-05-20T17:14:22.453Z,57.63
2023-05-20T17:17:09.583Z,57.47
2023-05-20T17:19:56.239Z,57.73
2023-05-20T17:22:42.748Z,57.79
2023-05-20T17:25:29.241Z,57.94
2023-05-20T17:28:16.951Z,58.09
2023-05-20T17:31:02.892Z,58.07
2023-05-20T17:33:50.749Z,58.03
2023-05-20T17:36:37.851Z,57.98
2023-05-20T17:39:24.209Z,58.08
2023-05-20T17:42:10.743Z,58.46
2023-05-20T17:44:57.018Z,58.42
2023-05-20T17:47:43.024Z,58.29
2023-05-20T17:50:29.515Z,58.44
2023-05-20T17:53:15.939Z,58.81
2023-05-20T17:56:02.208Z,58.73
2023-05-20T17:58:48.292Z,58.44
2023-05-20T18:01:37.882Z,58.63
2023-05-20T18:04:24.022Z,58.87
2023-05-20T18:07:13.556Z,58.90
2023-05-20T18:09:59.777Z,58.92
2023-05-20T18:12:46.185Z,58.85
2023-05-20T18:15:32.152Z,58.97
2023-05-20T18:18:18.981Z,58.91
2023-05-20T18:21:07.820Z,59.19
2023-05-20T18:23:54.274Z,59.27
2023-05-20T18:26:42.863Z,59.19
2023-05-20T18:29:30.660Z,59.14
2023-05-20T18:32:16.869Z,58.94
2023-05-20T18:35:03.516Z,59.21
2023-05-20T18:37:49.644Z,58.80
2023-05-20T18:40:36.790Z,58.56
2023-05-20T18:43:23.295Z,58.71
2023-05-20T18:46:10.589Z,58.91
2023-05-20T18:48:56.710Z,59.14
2023-05-20T18:51:43.707Z,58.92
2023-05-20T18:54:29.796Z,59.04
2023-05-20T18:57:17.011Z,58.91
2023-05-20T19:00:05.508Z,58.94
2023-05-20T19:02:52.321Z,59.31
2023-05-20T19:05:39.036Z,59.04
2023-05-20T19:08:27.491Z,59.24
2023-05-20T19:11:13.716Z,59.52
2023-05-20T19:14:00.645Z,59.83
2023-05-20T19:16:46.703Z,59.87
2023-05-20T19:19:33.869Z,60.14
2023-05-20T19:22:19.947Z,59.88
2023-05-20T19:25:07.550Z,60.26
2023-05-20T19:27:53.594Z,60.56
2023-05-20T19:30:42.565Z,60.82
2023-05-20T19:33:28.590Z,60.72
2023-05-20T19:36:15.714Z,60.91
2023-05-20T19:39:03.594Z,61.00
2023-05-20T19:41:50.686Z,61.30
2023-05-20T19:44:37.466Z,61.60
2023-05-20T19:47:27.821Z,61.80
2023-05-20T19:50:17.732Z,61.70
2023-05-20T19:53:08.264Z,61.83
2023-05-20T19:55:54.750Z,61.89
2023-05-20T19:58:41.953Z,62.24
2023-05-20T20:01:28.609Z,62.16
2023-05-20T20:04:17.236Z,62.43
2023-05-20T20:07:03.683Z,62.83
2023-05-20T20:09:52.063Z,63.21
2023-05-20T20:12:38.957Z,63.54
2023-05-20T20:15:27.459Z,63.83
2023-05-20T20:18:13.230Z,63.98
2023-05-20T20:21:01.241Z,63.83
2023-05-20T20:23:47.187Z,64.28
2023-05-20T20:26:34.690Z,64.51
2023-05-20T20:29:24.765Z,64.31
2023-05-20T20:32:11.818Z,64.32
2023-05-20T20:34:59.041Z,64.67
2023-05-20T20:37:45.196Z,65.03
2023-05-20T20:40:33.515Z,65.14
2023-05-20T20:43:21.121Z,64.86
2023-05-20T20:46:07.654Z,64.72
2023-05-20T20:48:54.403Z,64.70
2023-05-20T20:51:40.717Z,64.89
2023-05-20T20:54:27.471Z,65.22
2023-05-20T20:57:20.549Z,65.50
2023-05-20T21:00:17.590Z,65.37
2023-05-20T21:03:04.739Z,65.52
2023-05-20T21:05:52.339Z,65.57
2023-05-20T21:08:38.533Z,65.80
2023-05-20T21:11:28.652Z,66.27
2023-05-20T21:14:15.419Z,66.24
2023-05-20T21:17:01.371Z,66.28
2023-05-20T21:19:47.948Z,66.15
2023-05-20T21:22:33.952Z,66.27
2023-05-20T21:25:20.061Z,66.51
2023-05-20T21:28:06.149Z,66.65
2023-05-20T21:30:52.523Z,66.38
2023-05-20T21:33:38.593Z,66.56
2023-05-20T21:36:26.108Z,66.48
2023-05-20T21:39:11.818Z,66.47
2023-05-20T21:41:58.264Z,66.41
2023-05-20T21:44:44.316Z,66.64
2023-05-20T21:47:31.729Z,66.59
2023-05-20T21:50:17.876Z,66.62
2023-05-20T21:53:03.632Z,66.36
2023-05-20T21:55:50.550Z,66.47
2023-05-20T21:58:41.338Z,66.24
2023-05-20T22:01:27.876Z,66.03
2023-05-20T22:04:15.180Z,65.54
2023-05-20T22:07:02.040Z,65.35
2023-05-20T22:09:48.041Z,65.26
2023-05-20T22:12:36.060Z,65.19
2023-05-20T22:15:22.972Z,65.08
2023-05-20T22:18:10.138Z,64.96
2023-05-20T22:20:59.296Z,64.68
2023-05-20T22:23:45.114Z,64.67
2023-05-20T22:26:33.686Z,64.55
2023-05-20T22:29:20.987Z,64.64
2023-05-20T22:32:07.909Z,64.68
2023-05-20T22:34:58.384Z,64.82
2023-05-20T22:37:45.322Z,64.72
2023-05-20T22:40:31.745Z,64.92
2023-05-20T22:43:18.800Z,65.09
2023-05-20T22:46:05.057Z,65.15
2023-05-20T22:48:55.567Z,65.10
2023-05-20T22:51:42.248Z,65.10
2023-05-20T22:54:28.293Z,64.99
2023-05-20T22:57:14.498Z,65.03
2023-05-20T23:00:00.881Z,65.12
2023-05-20T23:02:50.264Z,65.10
2023-05-20T23:05:36.709Z,65.18
2023-05-20T23:08:23.139Z,65.29
2023-05-20T23:11:08.793Z,65.23
2023-05-20T23:13:55.846Z,65.34
2023-05-20T23:16:42.296Z,65.44
2023-05-20T23:19:29.092Z,65.53
2023-05-20T23:22:15.517Z,65.55
2023-05-20T23:25:02.435Z,65.59
2023-05-20T23:27:48.852Z,65.55
2023-05-20T23:30:36.468Z,65.62
2023-05-20T23:33:25.648Z,65.57
2023-05-20T23:36:12.573Z,65.89
2023-05-20T23:38:59.287Z,66.00
2023-05-20T23:41:45.073Z,66.07
2023-05-20T23:44:32.112Z,66.41
2023-05-20T23:47:18.786Z,66.36
2023-05-20T23:50:05.528Z,66.71
2023-05-20T23:52:51.537Z,66.79
2023-05-20T23:55:37.957Z,66.78
2023-05-20T23:58:25.096Z,66.89
